sensor_id;sensor_type;location;lat;lon;timestamp;P1;durP1;ratioP1;P2;durP2;ratioP2
13805;SDS011;6974;53.606;9.872;2022-10-16T00:00:38;10.53;;;8.93;;
13805;SDS011;6974;53.606;9.872;2022-10-16T00:03:06;9.03;;;8.13;;
13805;SDS011;6974;53.606;9.872;2022-10-16T00:05:37;10.17;;;9.10;;
13805;SDS011;6974;53.606;9.872;2022-10-16T00:08:06;10.03;;;9.03;;
13805;SDS011;6974;53.606;9.872;2022-10-16T00:10:33;9.67;;;8.77;;
13805;SDS011;6974;53.606;9.872;2022-10-16T00:13:00;8.83;;;7.83;;
13805;SDS011;6974;53.606;9.872;2022-10-16T00:15:27;9.10;;;7.53;;
13805;SDS011;6974;53.606;9.872;2022-10-16T00:17:56;9.10;;;7.53;;
13805;SDS011;6974;53.606;9.872;2022-10-16T00:20:22;7.93;;;6.90;;
13805;SDS011;6974;53.606;9.872;2022-10-16T00:22:49;7.70;;;6.70;;
13805;SDS011;6974;53.606;9.872;2022-10-16T00:25:16;7.13;;;6.43;;
13805;SDS011;6974;53.606;9.872;2022-10-16T00:27:43;7.77;;;6.17;;
13805;SDS011;6974;53.606;9.872;2022-10-16T00:30:10;6.87;;;5.80;;
13805;SDS011;6974;53.606;9.872;2022-10-16T00:32:37;8.40;;;6.37;;
13805;SDS011;6974;53.606;9.872;2022-10-16T00:35:06;8.13;;;6.00;;
13805;SDS011;6974;53.606;9.872;2022-10-16T00:37:32;6.57;;;5.87;;
13805;SDS011;6974;53.606;9.872;2022-10-16T00:39:59;6.40;;;5.37;;
13805;SDS011;6974;53.606;9.872;2022-10-16T00:42:26;5.80;;;5.17;;
13805;SDS011;6974;53.606;9.872;2022-10-16T00:44:54;6.10;;;4.70;;
13805;SDS011;6974;53.606;9.872;2022-10-16T00:47:23;6.00;;;4.60;;
13805;SDS011;6974;53.606;9.872;2022-10-16T00:49:55;5.47;;;4.93;;
13805;SDS011;6974;53.606;9.872;2022-10-16T00:52:27;4.90;;;3.90;;
13805;SDS011;6974;53.606;9.872;2022-10-16T00:54:54;4.90;;;4.40;;
13805;SDS011;6974;53.606;9.872;2022-10-16T00:57:22;5.30;;;4.63;;
13805;SDS011;6974;53.606;9.872;2022-10-16T00:59:50;6.53;;;4.13;;
13805;SDS011;6974;53.606;9.872;2022-10-16T01:02:17;4.90;;;4.30;;
13805;SDS011;6974;53.606;9.872;2022-10-16T01:04:45;6.63;;;4.00;;
13805;SDS011;6974;53.606;9.872;2022-10-16T01:07:15;5.20;;;4.40;;
13805;SDS011;6974;53.606;9.872;2022-10-16T01:09:57;5.70;;;4.10;;
13805;SDS011;6974;53.606;9.872;2022-10-16T01:12:33;5.70;;;4.27;;
13805;SDS011;6974;53.606;9.872;2022-10-16T01:15:08;6.47;;;4.10;;
13805;SDS011;6974;53.606;9.872;2022-10-16T01:17:41;4.33;;;3.80;;
13805;SDS011;6974;53.606;9.872;2022-10-16T01:20:16;6.70;;;4.30;;
13805;SDS011;6974;53.606;9.872;2022-10-16T01:22:55;6.33;;;4.13;;
13805;SDS011;6974;53.606;9.872;2022-10-16T01:28:27;6.23;;;3.70;;
13805;SDS011;6974;53.606;9.872;2022-10-16T01:30:58;4.50;;;3.70;;
13805;SDS011;6974;53.606;9.872;2022-10-16T01:33:28;4.17;;;3.77;;
13805;SDS011;6974;53.606;9.872;2022-10-16T01:36:02;5.00;;;3.40;;
13805;SDS011;6974;53.606;9.872;2022-10-16T01:38:36;6.07;;;3.50;;
13805;SDS011;6974;53.606;9.872;2022-10-16T01:41:06;6.30;;;3.47;;
13805;SDS011;6974;53.606;9.872;2022-10-16T01:43:37;4.23;;;3.33;;
13805;SDS011;6974;53.606;9.872;2022-10-16T01:46:06;4.97;;;3.43;;
13805;SDS011;6974;53.606;9.872;2022-10-16T01:48:36;6.53;;;3.40;;
13805;SDS011;6974;53.606;9.872;2022-10-16T01:51:05;4.07;;;3.30;;
13805;SDS011;6974;53.606;9.872;2022-10-16T01:53:34;3.90;;;3.50;;
13805;SDS011;6974;53.606;9.872;2022-10-16T01:56:02;4.80;;;2.93;;
13805;SDS011;6974;53.606;9.872;2022-10-16T01:58:33;3.93;;;3.07;;
13805;SDS011;6974;53.606;9.872;2022-10-16T02:01:04;4.93;;;3.20;;
13805;SDS011;6974;53.606;9.872;2022-10-16T02:03:33;5.70;;;2.90;;
13805;SDS011;6974;53.606;9.872;2022-10-16T02:06:03;4.70;;;2.87;;
13805;SDS011;6974;53.606;9.872;2022-10-16T02:08:30;5.97;;;3.17;;
13805;SDS011;6974;53.606;9.872;2022-10-16T02:10:57;3.27;;;2.97;;
13805;SDS011;6974;53.606;9.872;2022-10-16T02:13:28;4.07;;;2.70;;
13805;SDS011;6974;53.606;9.872;2022-10-16T02:15:57;3.40;;;2.80;;
13805;SDS011;6974;53.606;9.872;2022-10-16T02:18:25;5.20;;;3.50;;
13805;SDS011;6974;53.606;9.872;2022-10-16T02:20:55;3.90;;;2.90;;
13805;SDS011;6974;53.606;9.872;2022-10-16T02:23:28;2.80;;;2.60;;
13805;SDS011;6974;53.606;9.872;2022-10-16T02:26:01;4.27;;;3.00;;
13805;SDS011;6974;53.606;9.872;2022-10-16T02:28:33;5.60;;;2.80;;
13805;SDS011;6974;53.606;9.872;2022-10-16T02:31:04;4.73;;;2.70;;
13805;SDS011;6974;53.606;9.872;2022-10-16T02:33:38;8.50;;;3.10;;
13805;SDS011;6974;53.606;9.872;2022-10-16T02:36:06;3.27;;;2.30;;
13805;SDS011;6974;53.606;9.872;2022-10-16T02:38:34;4.70;;;2.60;;
13805;SDS011;6974;53.606;9.872;2022-10-16T02:41:01;5.53;;;2.57;;
13805;SDS011;6974;53.606;9.872;2022-10-16T02:43:29;4.83;;;2.90;;
13805;SDS011;6974;53.606;9.872;2022-10-16T02:45:56;3.80;;;2.63;;
13805;SDS011;6974;53.606;9.872;2022-10-16T02:48:22;3.33;;;2.50;;
13805;SDS011;6974;53.606;9.872;2022-10-16T02:50:51;4.43;;;3.13;;
13805;SDS011;6974;53.606;9.872;2022-10-16T02:53:17;3.17;;;2.33;;
13805;SDS011;6974;53.606;9.872;2022-10-16T02:55:44;3.23;;;2.40;;
13805;SDS011;6974;53.606;9.872;2022-10-16T02:58:11;3.80;;;2.23;;
13805;SDS011;6974;53.606;9.872;2022-10-16T03:00:38;2.53;;;2.13;;
13805;SDS011;6974;53.606;9.872;2022-10-16T03:03:05;3.53;;;2.20;;
13805;SDS011;6974;53.606;9.872;2022-10-16T03:05:32;4.57;;;2.33;;
13805;SDS011;6974;53.606;9.872;2022-10-16T03:08:00;2.30;;;2.03;;
13805;SDS011;6974;53.606;9.872;2022-10-16T03:10:27;5.63;;;2.07;;
13805;SDS011;6974;53.606;9.872;2022-10-16T03:12:54;3.10;;;2.47;;
13805;SDS011;6974;53.606;9.872;2022-10-16T03:15:20;7.50;;;2.90;;
13805;SDS011;6974;53.606;9.872;2022-10-16T03:17:47;3.40;;;2.60;;
13805;SDS011;6974;53.606;9.872;2022-10-16T03:20:14;4.23;;;3.40;;
13805;SDS011;6974;53.606;9.872;2022-10-16T03:22:41;4.53;;;2.63;;
13805;SDS011;6974;53.606;9.872;2022-10-16T03:25:09;5.03;;;2.10;;
13805;SDS011;6974;53.606;9.872;2022-10-16T03:27:36;5.10;;;2.27;;
13805;SDS011;6974;53.606;9.872;2022-10-16T03:30:03;3.67;;;2.10;;
13805;SDS011;6974;53.606;9.872;2022-10-16T03:32:30;5.37;;;2.57;;
13805;SDS011;6974;53.606;9.872;2022-10-16T03:34:57;4.10;;;2.50;;
13805;SDS011;6974;53.606;9.872;2022-10-16T03:37:24;4.37;;;2.53;;
13805;SDS011;6974;53.606;9.872;2022-10-16T03:39:50;3.67;;;2.50;;
13805;SDS011;6974;53.606;9.872;2022-10-16T03:42:19;5.00;;;2.17;;
13805;SDS011;6974;53.606;9.872;2022-10-16T03:44:46;5.33;;;2.30;;
13805;SDS011;6974;53.606;9.872;2022-10-16T03:47:12;2.43;;;2.20;;
13805;SDS011;6974;53.606;9.872;2022-10-16T03:49:39;2.87;;;2.17;;
13805;SDS011;6974;53.606;9.872;2022-10-16T03:52:06;4.00;;;2.40;;
13805;SDS011;6974;53.606;9.872;2022-10-16T03:54:33;2.60;;;2.30;;
13805;SDS011;6974;53.606;9.872;2022-10-16T03:56:59;5.67;;;2.33;;
13805;SDS011;6974;53.606;9.872;2022-10-16T03:59:27;2.83;;;2.33;;
13805;SDS011;6974;53.606;9.872;2022-10-16T04:01:54;6.27;;;2.50;;
13805;SDS011;6974;53.606;9.872;2022-10-16T04:04:21;3.53;;;2.10;;
13805;SDS011;6974;53.606;9.872;2022-10-16T04:06:48;3.10;;;2.13;;
13805;SDS011;6974;53.606;9.872;2022-10-16T04:09:14;4.63;;;2.30;;
13805;SDS011;6974;53.606;9.872;2022-10-16T04:11:41;4.50;;;2.37;;
13805;SDS011;6974;53.606;9.872;2022-10-16T04:14:08;3.97;;;2.60;;
13805;SDS011;6974;53.606;9.872;2022-10-16T04:16:36;3.83;;;2.27;;
13805;SDS011;6974;53.606;9.872;2022-10-16T04:19:03;2.77;;;2.20;;
13805;SDS011;6974;53.606;9.872;2022-10-16T04:21:30;4.37;;;2.20;;
13805;SDS011;6974;53.606;9.872;2022-10-16T04:23:56;3.43;;;2.17;;
13805;SDS011;6974;53.606;9.872;2022-10-16T04:26:23;3.97;;;2.33;;
13805;SDS011;6974;53.606;9.872;2022-10-16T04:28:50;4.93;;;2.40;;
13805;SDS011;6974;53.606;9.872;2022-10-16T04:31:17;5.97;;;2.40;;
13805;SDS011;6974;53.606;9.872;2022-10-16T04:33:45;4.87;;;2.53;;
13805;SDS011;6974;53.606;9.872;2022-10-16T04:36:12;4.83;;;2.47;;
13805;SDS011;6974;53.606;9.872;2022-10-16T04:38:39;5.80;;;2.57;;
13805;SDS011;6974;53.606;9.872;2022-10-16T04:41:06;4.50;;;2.70;;
13805;SDS011;6974;53.606;9.872;2022-10-16T04:43:33;4.27;;;2.33;;
13805;SDS011;6974;53.606;9.872;2022-10-16T04:46:00;3.60;;;2.10;;
13805;SDS011;6974;53.606;9.872;2022-10-16T04:48:29;3.43;;;2.07;;
13805;SDS011;6974;53.606;9.872;2022-10-16T04:50:58;4.17;;;2.57;;
13805;SDS011;6974;53.606;9.872;2022-10-16T04:53:25;6.37;;;2.70;;
13805;SDS011;6974;53.606;9.872;2022-10-16T04:55:51;5.73;;;2.50;;
13805;SDS011;6974;53.606;9.872;2022-10-16T04:58:18;3.70;;;2.40;;
13805;SDS011;6974;53.606;9.872;2022-10-16T05:00:45;4.37;;;2.50;;
13805;SDS011;6974;53.606;9.872;2022-10-16T05:03:12;5.03;;;2.53;;
13805;SDS011;6974;53.606;9.872;2022-10-16T05:05:41;4.87;;;2.73;;
13805;SDS011;6974;53.606;9.872;2022-10-16T05:08:10;4.33;;;2.70;;
13805;SDS011;6974;53.606;9.872;2022-10-16T05:10:37;5.43;;;2.70;;
13805;SDS011;6974;53.606;9.872;2022-10-16T05:13:04;3.73;;;2.43;;
13805;SDS011;6974;53.606;9.872;2022-10-16T05:15:31;4.83;;;3.00;;
13805;SDS011;6974;53.606;9.872;2022-10-16T05:17:58;4.77;;;2.87;;
13805;SDS011;6974;53.606;9.872;2022-10-16T05:20:24;4.17;;;2.97;;
13805;SDS011;6974;53.606;9.872;2022-10-16T05:22:51;4.77;;;3.27;;
13805;SDS011;6974;53.606;9.872;2022-10-16T05:25:19;5.43;;;3.40;;
13805;SDS011;6974;53.606;9.872;2022-10-16T05:27:47;8.13;;;3.30;;
13805;SDS011;6974;53.606;9.872;2022-10-16T05:30:14;5.53;;;3.43;;
13805;SDS011;6974;53.606;9.872;2022-10-16T05:32:45;5.53;;;3.27;;
13805;SDS011;6974;53.606;9.872;2022-10-16T05:35:13;6.93;;;3.40;;
13805;SDS011;6974;53.606;9.872;2022-10-16T05:37:40;4.67;;;3.07;;
13805;SDS011;6974;53.606;9.872;2022-10-16T05:40:07;4.73;;;3.53;;
13805;SDS011;6974;53.606;9.872;2022-10-16T05:42:36;4.10;;;3.70;;
13805;SDS011;6974;53.606;9.872;2022-10-16T05:45:03;7.90;;;4.07;;
13805;SDS011;6974;53.606;9.872;2022-10-16T05:47:30;7.30;;;5.40;;
13805;SDS011;6974;53.606;9.872;2022-10-16T05:49:57;7.93;;;3.73;;
13805;SDS011;6974;53.606;9.872;2022-10-16T05:52:24;6.73;;;4.10;;
13805;SDS011;6974;53.606;9.872;2022-10-16T05:54:50;6.27;;;4.00;;
13805;SDS011;6974;53.606;9.872;2022-10-16T05:57:17;5.63;;;3.90;;
13805;SDS011;6974;53.606;9.872;2022-10-16T05:59:45;7.13;;;3.63;;
13805;SDS011;6974;53.606;9.872;2022-10-16T06:02:12;6.63;;;4.60;;
13805;SDS011;6974;53.606;9.872;2022-10-16T06:04:39;7.80;;;3.87;;
13805;SDS011;6974;53.606;9.872;2022-10-16T06:07:06;5.60;;;3.43;;
13805;SDS011;6974;53.606;9.872;2022-10-16T06:09:33;6.60;;;3.80;;
13805;SDS011;6974;53.606;9.872;2022-10-16T06:12:00;5.80;;;3.33;;
13805;SDS011;6974;53.606;9.872;2022-10-16T06:14:26;4.77;;;3.33;;
13805;SDS011;6974;53.606;9.872;2022-10-16T06:16:55;5.03;;;3.57;;
13805;SDS011;6974;53.606;9.872;2022-10-16T06:19:21;4.07;;;3.57;;
13805;SDS011;6974;53.606;9.872;2022-10-16T06:21:49;5.47;;;3.50;;
13805;SDS011;6974;53.606;9.872;2022-10-16T06:24:15;5.40;;;3.80;;
13805;SDS011;6974;53.606;9.872;2022-10-16T06:26:42;5.67;;;3.27;;
13805;SDS011;6974;53.606;9.872;2022-10-16T06:29:09;4.63;;;3.40;;
13805;SDS011;6974;53.606;9.872;2022-10-16T06:31:36;4.40;;;3.27;;
13805;SDS011;6974;53.606;9.872;2022-10-16T06:34:04;6.90;;;3.63;;
13805;SDS011;6974;53.606;9.872;2022-10-16T06:36:34;7.10;;;3.87;;
13805;SDS011;6974;53.606;9.872;2022-10-16T06:39:01;5.17;;;3.60;;
13805;SDS011;6974;53.606;9.872;2022-10-16T06:41:28;6.43;;;4.27;;
13805;SDS011;6974;53.606;9.872;2022-10-16T06:43:54;6.57;;;3.83;;
13805;SDS011;6974;53.606;9.872;2022-10-16T06:46:22;5.57;;;3.70;;
13805;SDS011;6974;53.606;9.872;2022-10-16T06:48:50;7.07;;;3.60;;
13805;SDS011;6974;53.606;9.872;2022-10-16T06:51:20;4.20;;;3.57;;
13805;SDS011;6974;53.606;9.872;2022-10-16T06:53:49;7.57;;;4.43;;
13805;SDS011;6974;53.606;9.872;2022-10-16T06:56:17;7.07;;;4.03;;
13805;SDS011;6974;53.606;9.872;2022-10-16T06:58:45;5.33;;;3.63;;
13805;SDS011;6974;53.606;9.872;2022-10-16T07:01:13;4.80;;;3.90;;
13805;SDS011;6974;53.606;9.872;2022-10-16T07:03:41;5.90;;;4.23;;
13805;SDS011;6974;53.606;9.872;2022-10-16T07:06:09;6.10;;;3.97;;
13805;SDS011;6974;53.606;9.872;2022-10-16T07:08:39;5.80;;;4.03;;
13805;SDS011;6974;53.606;9.872;2022-10-16T07:11:07;9.50;;;4.30;;
13805;SDS011;6974;53.606;9.872;2022-10-16T07:13:35;7.83;;;4.20;;
13805;SDS011;6974;53.606;9.872;2022-10-16T07:16:06;9.83;;;4.80;;
13805;SDS011;6974;53.606;9.872;2022-10-16T07:18:34;6.07;;;4.30;;
13805;SDS011;6974;53.606;9.872;2022-10-16T07:21:04;7.37;;;4.30;;
13805;SDS011;6974;53.606;9.872;2022-10-16T07:23:31;6.67;;;4.13;;
13805;SDS011;6974;53.606;9.872;2022-10-16T07:26:01;8.40;;;4.37;;
13805;SDS011;6974;53.606;9.872;2022-10-16T07:28:29;5.03;;;4.20;;
13805;SDS011;6974;53.606;9.872;2022-10-16T07:30:59;7.17;;;4.40;;
13805;SDS011;6974;53.606;9.872;2022-10-16T07:33:27;8.13;;;4.70;;
13805;SDS011;6974;53.606;9.872;2022-10-16T07:35:55;8.10;;;4.73;;
13805;SDS011;6974;53.606;9.872;2022-10-16T07:38:21;5.27;;;4.47;;
13805;SDS011;6974;53.606;9.872;2022-10-16T07:40:55;6.60;;;4.63;;
13805;SDS011;6974;53.606;9.872;2022-10-16T07:43:25;8.67;;;4.90;;
13805;SDS011;6974;53.606;9.872;2022-10-16T07:45:52;5.63;;;4.60;;
13805;SDS011;6974;53.606;9.872;2022-10-16T07:48:20;7.17;;;4.57;;
13805;SDS011;6974;53.606;9.872;2022-10-16T07:50:47;7.07;;;4.77;;
13805;SDS011;6974;53.606;9.872;2022-10-16T07:53:14;6.27;;;5.07;;
13805;SDS011;6974;53.606;9.872;2022-10-16T07:55:41;6.97;;;4.73;;
13805;SDS011;6974;53.606;9.872;2022-10-16T07:58:08;7.60;;;4.80;;
13805;SDS011;6974;53.606;9.872;2022-10-16T08:00:36;6.93;;;4.87;;
13805;SDS011;6974;53.606;9.872;2022-10-16T08:03:03;5.27;;;4.37;;
13805;SDS011;6974;53.606;9.872;2022-10-16T08:05:31;5.43;;;4.67;;
13805;SDS011;6974;53.606;9.872;2022-10-16T08:07:59;7.43;;;4.90;;
13805;SDS011;6974;53.606;9.872;2022-10-16T08:10:27;6.37;;;4.93;;
13805;SDS011;6974;53.606;9.872;2022-10-16T08:12:54;6.63;;;4.80;;
13805;SDS011;6974;53.606;9.872;2022-10-16T08:15:21;5.53;;;4.70;;
13805;SDS011;6974;53.606;9.872;2022-10-16T08:17:55;7.77;;;4.93;;
13805;SDS011;6974;53.606;9.872;2022-10-16T08:20:22;7.70;;;4.60;;
13805;SDS011;6974;53.606;9.872;2022-10-16T08:22:49;5.27;;;4.53;;
13805;SDS011;6974;53.606;9.872;2022-10-16T08:25:16;6.83;;;5.27;;
13805;SDS011;6974;53.606;9.872;2022-10-16T08:27:43;4.70;;;4.20;;
13805;SDS011;6974;53.606;9.872;2022-10-16T08:30:10;6.37;;;4.17;;
13805;SDS011;6974;53.606;9.872;2022-10-16T08:32:37;6.50;;;4.30;;
13805;SDS011;6974;53.606;9.872;2022-10-16T08:35:05;6.57;;;4.37;;
13805;SDS011;6974;53.606;9.872;2022-10-16T08:37:32;5.80;;;4.23;;
13805;SDS011;6974;53.606;9.872;2022-10-16T08:39:59;5.67;;;4.17;;
13805;SDS011;6974;53.606;9.872;2022-10-16T08:42:32;7.53;;;5.50;;
13805;SDS011;6974;53.606;9.872;2022-10-16T08:45:12;4.63;;;4.03;;
13805;SDS011;6974;53.606;9.872;2022-10-16T08:47:48;7.63;;;4.53;;
13805;SDS011;6974;53.606;9.872;2022-10-16T08:50:26;5.13;;;4.37;;
13805;SDS011;6974;53.606;9.872;2022-10-16T08:52:55;4.90;;;3.90;;
13805;SDS011;6974;53.606;9.872;2022-10-16T08:55:29;4.00;;;3.53;;
13805;SDS011;6974;53.606;9.872;2022-10-16T08:57:59;7.40;;;3.70;;
13805;SDS011;6974;53.606;9.872;2022-10-16T09:00:26;5.33;;;4.00;;
13805;SDS011;6974;53.606;9.872;2022-10-16T09:02:56;4.20;;;3.80;;
13805;SDS011;6974;53.606;9.872;2022-10-16T09:08:51;7.30;;;4.13;;
13805;SDS011;6974;53.606;9.872;2022-10-16T09:11:31;4.70;;;3.20;;
13805;SDS011;6974;53.606;9.872;2022-10-16T09:14:11;5.80;;;3.20;;
13805;SDS011;6974;53.606;9.872;2022-10-16T09:17:03;5.37;;;3.53;;
13805;SDS011;6974;53.606;9.872;2022-10-16T09:19:41;3.60;;;3.10;;
13805;SDS011;6974;53.606;9.872;2022-10-16T09:22:14;5.63;;;3.70;;
13805;SDS011;6974;53.606;9.872;2022-10-16T09:24:44;6.70;;;3.50;;
13805;SDS011;6974;53.606;9.872;2022-10-16T09:27:11;3.13;;;2.50;;
13805;SDS011;6974;53.606;9.872;2022-10-16T09:29:39;4.47;;;2.80;;
13805;SDS011;6974;53.606;9.872;2022-10-16T09:32:08;6.07;;;3.17;;
13805;SDS011;6974;53.606;9.872;2022-10-16T09:34:39;4.17;;;2.70;;
13805;SDS011;6974;53.606;9.872;2022-10-16T09:37:10;5.13;;;3.07;;
13805;SDS011;6974;53.606;9.872;2022-10-16T09:39:45;7.07;;;2.77;;
13805;SDS011;6974;53.606;9.872;2022-10-16T09:42:14;3.17;;;2.57;;
13805;SDS011;6974;53.606;9.872;2022-10-16T09:44:42;5.53;;;2.50;;
13805;SDS011;6974;53.606;9.872;2022-10-16T09:47:15;4.33;;;2.70;;
13805;SDS011;6974;53.606;9.872;2022-10-16T09:49:51;4.23;;;2.57;;
13805;SDS011;6974;53.606;9.872;2022-10-16T09:52:19;5.07;;;2.60;;
13805;SDS011;6974;53.606;9.872;2022-10-16T09:54:51;6.83;;;2.50;;
13805;SDS011;6974;53.606;9.872;2022-10-16T09:57:19;6.03;;;2.43;;
13805;SDS011;6974;53.606;9.872;2022-10-16T09:59:48;5.30;;;2.57;;
13805;SDS011;6974;53.606;9.872;2022-10-16T10:02:16;3.17;;;2.27;;
13805;SDS011;6974;53.606;9.872;2022-10-16T10:04:48;5.60;;;2.40;;
13805;SDS011;6974;53.606;9.872;2022-10-16T10:07:20;3.20;;;2.33;;
13805;SDS011;6974;53.606;9.872;2022-10-16T10:09:52;4.20;;;2.40;;
13805;SDS011;6974;53.606;9.872;2022-10-16T10:12:21;3.40;;;2.10;;
13805;SDS011;6974;53.606;9.872;2022-10-16T10:14:50;5.47;;;2.43;;
13805;SDS011;6974;53.606;9.872;2022-10-16T10:17:18;3.63;;;2.20;;
13805;SDS011;6974;53.606;9.872;2022-10-16T10:19:48;4.53;;;2.80;;
13805;SDS011;6974;53.606;9.872;2022-10-16T10:22:17;4.77;;;2.67;;
13805;SDS011;6974;53.606;9.872;2022-10-16T10:24:55;5.10;;;2.10;;
13805;SDS011;6974;53.606;9.872;2022-10-16T10:27:30;6.97;;;2.30;;
13805;SDS011;6974;53.606;9.872;2022-10-16T10:30:05;5.50;;;1.90;;
13805;SDS011;6974;53.606;9.872;2022-10-16T10:32:42;3.07;;;2.10;;
13805;SDS011;6974;53.606;9.872;2022-10-16T10:35:22;5.93;;;2.37;;
13805;SDS011;6974;53.606;9.872;2022-10-16T10:37:58;5.80;;;2.47;;
13805;SDS011;6974;53.606;9.872;2022-10-16T10:40:37;5.53;;;2.37;;
13805;SDS011;6974;53.606;9.872;2022-10-16T10:43:10;4.27;;;2.23;;
13805;SDS011;6974;53.606;9.872;2022-10-16T10:45:47;3.57;;;2.30;;
13805;SDS011;6974;53.606;9.872;2022-10-16T10:48:24;4.10;;;2.10;;
13805;SDS011;6974;53.606;9.872;2022-10-16T10:51:21;4.03;;;2.10;;
13805;SDS011;6974;53.606;9.872;2022-10-16T10:53:54;3.57;;;2.00;;
13805;SDS011;6974;53.606;9.872;2022-10-16T10:56:37;6.03;;;2.47;;
13805;SDS011;6974;53.606;9.872;2022-10-16T10:59:15;7.43;;;2.50;;
13805;SDS011;6974;53.606;9.872;2022-10-16T11:01:55;4.50;;;2.00;;
13805;SDS011;6974;53.606;9.872;2022-10-16T11:04:29;3.00;;;1.67;;
13805;SDS011;6974;53.606;9.872;2022-10-16T11:07:04;3.73;;;2.00;;
13805;SDS011;6974;53.606;9.872;2022-10-16T11:09:36;3.53;;;1.60;;
13805;SDS011;6974;53.606;9.872;2022-10-16T11:12:09;4.33;;;1.80;;
13805;SDS011;6974;53.606;9.872;2022-10-16T11:14:42;2.40;;;1.63;;
13805;SDS011;6974;53.606;9.872;2022-10-16T11:17:17;4.97;;;1.73;;
13805;SDS011;6974;53.606;9.872;2022-10-16T11:19:48;4.67;;;1.97;;
13805;SDS011;6974;53.606;9.872;2022-10-16T11:22:19;3.23;;;1.90;;
13805;SDS011;6974;53.606;9.872;2022-10-16T11:24:51;5.23;;;2.20;;
13805;SDS011;6974;53.606;9.872;2022-10-16T11:27:28;3.80;;;1.67;;
13805;SDS011;6974;53.606;9.872;2022-10-16T11:30:03;5.00;;;2.23;;
13805;SDS011;6974;53.606;9.872;2022-10-16T11:32:33;3.50;;;1.90;;
13805;SDS011;6974;53.606;9.872;2022-10-16T11:35:10;3.37;;;1.80;;
13805;SDS011;6974;53.606;9.872;2022-10-16T11:37:44;3.83;;;1.70;;
13805;SDS011;6974;53.606;9.872;2022-10-16T11:40:18;3.43;;;1.80;;
13805;SDS011;6974;53.606;9.872;2022-10-16T11:42:54;2.83;;;1.60;;
13805;SDS011;6974;53.606;9.872;2022-10-16T11:45:26;4.37;;;1.60;;
13805;SDS011;6974;53.606;9.872;2022-10-16T11:48:00;3.23;;;1.70;;
13805;SDS011;6974;53.606;9.872;2022-10-16T11:50:35;3.27;;;1.93;;
13805;SDS011;6974;53.606;9.872;2022-10-16T11:53:11;4.20;;;1.73;;
13805;SDS011;6974;53.606;9.872;2022-10-16T11:55:43;3.77;;;1.70;;
13805;SDS011;6974;53.606;9.872;2022-10-16T11:58:15;3.37;;;1.90;;
13805;SDS011;6974;53.606;9.872;2022-10-16T12:00:51;4.70;;;1.77;;
13805;SDS011;6974;53.606;9.872;2022-10-16T12:03:25;2.30;;;1.73;;
13805;SDS011;6974;53.606;9.872;2022-10-16T12:05:57;2.90;;;1.70;;
13805;SDS011;6974;53.606;9.872;2022-10-16T12:08:32;4.73;;;1.90;;
13805;SDS011;6974;53.606;9.872;2022-10-16T12:11:07;3.63;;;1.70;;
13805;SDS011;6974;53.606;9.872;2022-10-16T12:13:37;4.27;;;1.80;;
13805;SDS011;6974;53.606;9.872;2022-10-16T12:16:22;4.10;;;1.90;;
13805;SDS011;6974;53.606;9.872;2022-10-16T12:18:49;3.57;;;1.73;;
13805;SDS011;6974;53.606;9.872;2022-10-16T12:21:29;4.80;;;1.87;;
13805;SDS011;6974;53.606;9.872;2022-10-16T12:23:58;6.13;;;2.13;;
13805;SDS011;6974;53.606;9.872;2022-10-16T12:26:26;5.90;;;2.10;;
13805;SDS011;6974;53.606;9.872;2022-10-16T12:29:08;5.47;;;1.90;;
13805;SDS011;6974;53.606;9.872;2022-10-16T12:31:43;4.50;;;1.80;;
13805;SDS011;6974;53.606;9.872;2022-10-16T12:34:20;5.00;;;1.80;;
13805;SDS011;6974;53.606;9.872;2022-10-16T12:36:52;5.27;;;2.03;;
13805;SDS011;6974;53.606;9.872;2022-10-16T12:39:21;4.47;;;1.87;;
13805;SDS011;6974;53.606;9.872;2022-10-16T12:42:00;4.97;;;1.80;;
13805;SDS011;6974;53.606;9.872;2022-10-16T12:44:33;4.27;;;2.00;;
13805;SDS011;6974;53.606;9.872;2022-10-16T12:47:00;4.43;;;1.90;;
13805;SDS011;6974;53.606;9.872;2022-10-16T12:49:32;4.90;;;1.93;;
13805;SDS011;6974;53.606;9.872;2022-10-16T12:52:03;6.43;;;2.07;;
13805;SDS011;6974;53.606;9.872;2022-10-16T12:54:30;4.13;;;1.73;;
13805;SDS011;6974;53.606;9.872;2022-10-16T12:57:17;3.87;;;1.80;;
13805;SDS011;6974;53.606;9.872;2022-10-16T12:59:59;5.03;;;1.90;;
13805;SDS011;6974;53.606;9.872;2022-10-16T13:02:45;5.40;;;2.10;;
13805;SDS011;6974;53.606;9.872;2022-10-16T13:05:32;5.90;;;2.90;;
13805;SDS011;6974;53.606;9.872;2022-10-16T13:08:21;2.87;;;1.73;;
13805;SDS011;6974;53.606;9.872;2022-10-16T13:11:03;4.97;;;2.00;;
13805;SDS011;6974;53.606;9.872;2022-10-16T13:13:40;6.30;;;1.70;;
13805;SDS011;6974;53.606;9.872;2022-10-16T13:16:30;3.37;;;1.80;;
13805;SDS011;6974;53.606;9.872;2022-10-16T13:19:10;3.97;;;1.80;;
13805;SDS011;6974;53.606;9.872;2022-10-16T13:21:48;4.10;;;1.83;;
13805;SDS011;6974;53.606;9.872;2022-10-16T13:24:25;5.83;;;2.20;;
13805;SDS011;6974;53.606;9.872;2022-10-16T13:27:05;4.87;;;2.10;;
13805;SDS011;6974;53.606;9.872;2022-10-16T13:29:39;5.47;;;1.90;;
13805;SDS011;6974;53.606;9.872;2022-10-16T13:32:09;4.67;;;2.00;;
13805;SDS011;6974;53.606;9.872;2022-10-16T13:34:43;4.03;;;1.90;;
13805;SDS011;6974;53.606;9.872;2022-10-16T13:37:16;5.77;;;2.00;;
13805;SDS011;6974;53.606;9.872;2022-10-16T13:39:44;4.63;;;1.70;;
13805;SDS011;6974;53.606;9.872;2022-10-16T13:42:12;5.73;;;2.07;;
13805;SDS011;6974;53.606;9.872;2022-10-16T13:44:42;3.87;;;1.93;;
13805;SDS011;6974;53.606;9.872;2022-10-16T13:47:16;3.30;;;1.70;;
13805;SDS011;6974;53.606;9.872;2022-10-16T13:49:44;3.47;;;1.90;;
13805;SDS011;6974;53.606;9.872;2022-10-16T13:52:17;4.63;;;2.40;;
13805;SDS011;6974;53.606;9.872;2022-10-16T13:54:45;5.40;;;1.97;;
13805;SDS011;6974;53.606;9.872;2022-10-16T13:57:13;3.63;;;1.83;;
13805;SDS011;6974;53.606;9.872;2022-10-16T13:59:40;6.60;;;2.20;;
13805;SDS011;6974;53.606;9.872;2022-10-16T14:02:09;6.47;;;2.20;;
13805;SDS011;6974;53.606;9.872;2022-10-16T14:04:45;5.23;;;2.37;;
13805;SDS011;6974;53.606;9.872;2022-10-16T14:07:13;5.37;;;1.90;;
13805;SDS011;6974;53.606;9.872;2022-10-16T14:09:47;4.20;;;1.67;;
13805;SDS011;6974;53.606;9.872;2022-10-16T14:12:16;2.97;;;1.60;;
13805;SDS011;6974;53.606;9.872;2022-10-16T14:14:43;2.97;;;1.60;;
13805;SDS011;6974;53.606;9.872;2022-10-16T14:17:15;3.50;;;1.70;;
13805;SDS011;6974;53.606;9.872;2022-10-16T14:19:46;4.00;;;1.90;;
13805;SDS011;6974;53.606;9.872;2022-10-16T14:22:22;4.60;;;1.83;;
13805;SDS011;6974;53.606;9.872;2022-10-16T14:24:54;3.37;;;1.67;;
13805;SDS011;6974;53.606;9.872;2022-10-16T14:27:23;5.63;;;2.00;;
13805;SDS011;6974;53.606;9.872;2022-10-16T14:30:05;6.70;;;1.80;;
13805;SDS011;6974;53.606;9.872;2022-10-16T14:32:41;4.27;;;1.80;;
13805;SDS011;6974;53.606;9.872;2022-10-16T14:35:22;2.67;;;1.70;;
13805;SDS011;6974;53.606;9.872;2022-10-16T14:37:51;5.67;;;1.70;;
13805;SDS011;6974;53.606;9.872;2022-10-16T14:40:19;4.87;;;2.00;;
13805;SDS011;6974;53.606;9.872;2022-10-16T14:42:48;6.73;;;2.10;;
13805;SDS011;6974;53.606;9.872;2022-10-16T14:45:18;5.93;;;2.07;;
13805;SDS011;6974;53.606;9.872;2022-10-16T14:47:49;3.40;;;1.83;;
13805;SDS011;6974;53.606;9.872;2022-10-16T14:50:18;4.03;;;1.90;;
13805;SDS011;6974;53.606;9.872;2022-10-16T14:52:44;6.07;;;2.07;;
13805;SDS011;6974;53.606;9.872;2022-10-16T14:55:11;5.20;;;2.10;;
13805;SDS011;6974;53.606;9.872;2022-10-16T14:57:38;2.83;;;1.70;;
13805;SDS011;6974;53.606;9.872;2022-10-16T15:00:10;4.03;;;1.73;;
13805;SDS011;6974;53.606;9.872;2022-10-16T15:02:41;5.70;;;2.13;;
13805;SDS011;6974;53.606;9.872;2022-10-16T15:05:15;6.60;;;2.17;;
13805;SDS011;6974;53.606;9.872;2022-10-16T15:07:43;2.73;;;1.90;;
13805;SDS011;6974;53.606;9.872;2022-10-16T15:10:11;5.00;;;2.10;;
13805;SDS011;6974;53.606;9.872;2022-10-16T15:12:38;4.80;;;1.93;;
13805;SDS011;6974;53.606;9.872;2022-10-16T15:17:53;4.37;;;2.20;;
13805;SDS011;6974;53.606;9.872;2022-10-16T15:20:23;9.00;;;2.43;;
13805;SDS011;6974;53.606;9.872;2022-10-16T15:22:50;4.27;;;1.90;;
13805;SDS011;6974;53.606;9.872;2022-10-16T15:25:26;5.90;;;2.00;;
13805;SDS011;6974;53.606;9.872;2022-10-16T15:27:56;3.83;;;1.87;;